Impacts TAF Board
For situational awareness. Not to be used for flight planning purposes.
IDs:

KBDR - Bridgeport/Sikorsky, CT, US

Issued at 0821 UTC 13 Aug 2022
Updated at 0831 UTC 13 Aug 2022
Potential Impact None Slight Moderate High
Time0752Z 13/09Z 13/10Z 13/11Z 13/12Z 13/13Z 13/14Z 13/15Z 13/16Z 13/17Z 13/18Z 13/19Z 13/20Z 13/21Z>>
Type OBS PRVL PRVL PRVL PRVL PRVL PRVL PRVL PRVL PRVL PRVL PRVL PRVL PRVL
VIS 10 >6 >6 >6 >6 >6 >6 >6 >6 >6 >6 >6 >6 >6
CIG -- -- -- -- -- -- -- -- -- -- -- -- -- --
Cover CLR SKC SKC SKC SKC SKC SKC SKC SKC SCT SCT SCT SCT SCT
FltCat VFR VFR VFR VFR VFR VFR VFR VFR VFR VFR VFR VFR VFR VFR
WX -- -- -- -- -- -- -- -- -- -- -- -- -- --
WDir 360 360 360 360 360 360 360 360 360 320 320 320 320 320
WSpd 9 10 10 10 10 10 10 10 10 9 9 9 9 9
WGst -- -- -- -- -- -- -- -- -- -- -- -- -- --
WSHgt -- -- -- -- -- -- -- -- -- -- -- -- -- --
WSDir -- -- -- -- -- -- -- -- -- -- -- -- -- --
WSSpd -- -- -- -- -- -- -- -- -- -- -- -- -- --
Raw TAF
KBDR 130821Z 1308/1406 36010KT P6SM SKC
  FM131700 32009KT P6SM SCT060
  FM140000 19006KT P6SM SKC
  FM140300 22004KT P6SM SKC


Raw METAR
KBDR 130752Z AUTO 36009KT 10SM CLR 18/09 A3006 RMK AO2 SLP178 T01780094
KBDR 130652Z AUTO 36009KT 10SM CLR 18/09 A3005 RMK AO2 SLP175 T01830089
KBDR 130552Z AUTO 36006KT 10SM CLR 19/08 A3005 RMK AO2 SLP177 T01890083 10256 20189 50006

METAR Board
Radar Display
Forecast Discussion
For situational awareness. Not to be used for flight planning purposes.